Time;durP1;ratioP1;P1;durP2;ratioP2;P2;SDS_P1;SDS_P2;PMS_P1;PMS_P2;Temp;Humidity;BMP_temperature;BMP_pressure;BME280_temperature;BME280_humidity;BME280_pressure;Samples;Min_cycle;Max_cycle;Signal;HPM_P1;HPM_P2
2022/11/06 00:00:34;;;;;;;12.65;5.35;;;;;;;;;;4972111;28;20122;-80
2022/11/06 00:03:00;;;;;;;14.20;6.18;;;;;;;;;;4962346;28;20038;-80
2022/11/06 00:08:12;;;;;;;15.20;6.72;;;;;;;;;;4961039;28;20026;-79
2022/11/06 00:10:38;;;;;;;11.18;5.75;;;;;;;;;;4967617;28;20049;-81
2022/11/06 00:13:04;;;;;;;12.25;6.22;;;;;;;;;;4967621;28;20798;-80
2022/11/06 00:15:30;;;;;;;12.38;6.38;;;;;;;;;;4972984;28;20049;-81
2022/11/06 00:17:56;;;;;;;16.25;6.47;;;;;;;;;;4971275;28;20035;-81
2022/11/06 00:20:22;;;;;;;16.75;6.57;;;;;;;;;;4972923;28;20039;-80
2022/11/06 00:22:48;;;;;;;13.40;6.43;;;;;;;;;;4965605;28;20039;-81
2022/11/06 00:25:14;;;;;;;15.82;7.22;;;;;;;;;;4978676;28;20031;-80
2022/11/06 00:27:42;;;;;;;13.68;6.22;;;;;;;;;;4971699;28;20041;-80
2022/11/06 00:30:10;;;;;;;11.13;7.13;;;;;;;;;;4976557;28;20045;-80
2022/11/06 00:32:36;;;;;;;21.58;7.05;;;;;;;;;;4983046;28;20023;-80
2022/11/06 00:35:02;;;;;;;17.92;6.88;;;;;;;;;;4975911;28;20069;-81
2022/11/06 00:37:28;;;;;;;23.65;7.05;;;;;;;;;;4968722;28;20035;-81
2022/11/06 00:39:54;;;;;;;12.20;6.60;;;;;;;;;;4941661;28;20061;-81
2022/11/06 00:42:20;;;;;;;14.20;5.95;;;;;;;;;;4972530;28;20045;-81
2022/11/06 00:44:46;;;;;;;13.00;6.88;;;;;;;;;;4973309;28;20030;-81
2022/11/06 00:47:12;;;;;;;17.55;7.25;;;;;;;;;;4971394;28;20027;-80
2022/11/06 00:49:38;;;;;;;14.05;6.68;;;;;;;;;;4980112;28;20071;-81
2022/11/06 00:52:04;;;;;;;20.80;6.50;;;;;;;;;;4973724;28;20035;-82
2022/11/06 00:54:30;;;;;;;15.05;7.13;;;;;;;;;;4970477;28;20117;-82
2022/11/06 00:56:56;;;;;;;15.57;6.55;;;;;;;;;;4975007;28;20074;-83
2022/11/06 00:59:23;;;;;;;15.13;6.30;;;;;;;;;;4973393;28;20058;-83
2022/11/06 01:01:49;;;;;;;13.07;6.82;;;;;;;;;;4970838;28;20122;-83
2022/11/06 01:04:19;;;;;;;20.05;7.63;;;;;;;;;;4969506;28;20070;-82
2022/11/06 01:06:46;;;;;;;19.45;7.18;;;;;;;;;;4981291;28;20054;-84
2022/11/06 01:09:14;;;;;;;12.38;7.22;;;;;;;;;;4962890;28;20054;-83
2022/11/06 01:11:41;;;;;;;14.45;7.18;;;;;;;;;;4953797;28;20448;-84
2022/11/06 01:14:08;;;;;;;15.88;7.78;;;;;;;;;;4960768;28;20126;-83
2022/11/06 01:16:34;;;;;;;17.25;7.05;;;;;;;;;;4964846;28;20367;-82
2022/11/06 01:19:00;;;;;;;13.15;7.07;;;;;;;;;;4960728;28;20504;-83
2022/11/06 01:21:28;;;;;;;14.25;7.00;;;;;;;;;;4969950;28;20348;-82
2022/11/06 01:23:55;;;;;;;17.48;7.22;;;;;;;;;;4981937;28;20480;-83
2022/11/06 01:26:22;;;;;;;14.68;7.22;;;;;;;;;;4963529;28;20424;-81
2022/11/06 01:28:48;;;;;;;16.58;7.53;;;;;;;;;;4965259;28;20034;-80
2022/11/06 01:31:15;;;;;;;15.93;8.18;;;;;;;;;;4970839;28;20117;-81
2022/11/06 01:33:42;;;;;;;12.32;7.65;;;;;;;;;;4970887;28;20034;-82
2022/11/06 01:36:09;;;;;;;18.75;7.43;;;;;;;;;;4970825;28;20134;-82
2022/11/06 01:38:35;;;;;;;15.40;7.43;;;;;;;;;;4964092;28;20431;-81
2022/11/06 01:41:01;;;;;;;17.52;8.50;;;;;;;;;;4966428;28;20115;-82
2022/11/06 01:43:42;;;;;;;18.85;7.53;;;;;;;;;;4973704;28;20039;-82
2022/11/06 01:46:08;;;;;;;16.27;8.18;;;;;;;;;;4956548;28;20038;-82
2022/11/06 01:48:34;;;;;;;14.20;8.00;;;;;;;;;;4960095;28;20063;-81
2022/11/06 01:51:01;;;;;;;12.40;7.80;;;;;;;;;;4969922;28;20582;-82
2022/11/06 01:53:27;;;;;;;11.38;7.93;;;;;;;;;;4964805;28;20028;-82
2022/11/06 01:55:55;;;;;;;17.58;8.55;;;;;;;;;;4976400;28;20092;-83
2022/11/06 01:58:23;;;;;;;15.75;8.38;;;;;;;;;;4978767;28;20081;-83
2022/11/06 02:00:50;;;;;;;16.38;8.43;;;;;;;;;;4968470;28;20031;-80
2022/11/06 02:03:16;;;;;;;16.63;8.32;;;;;;;;;;4956752;28;20039;-82
2022/11/06 02:05:42;;;;;;;14.13;8.05;;;;;;;;;;4963872;28;20096;-85
2022/11/06 02:08:11;;;;;;;13.25;9.02;;;;;;;;;;4966914;28;20081;-83
2022/11/06 02:10:38;;;;;;;15.82;9.40;;;;;;;;;;4973786;28;20675;-86
2022/11/06 02:13:23;;;;;;;13.00;8.48;;;;;;;;;;4966748;28;20026;-83
2022/11/06 02:15:51;;;;;;;14.35;8.45;;;;;;;;;;4961866;28;20046;-81
2022/11/06 02:18:36;;;;;;;18.77;9.55;;;;;;;;;;4972173;28;20027;-80
2022/11/06 02:21:21;;;;;;;18.83;10.25;;;;;;;;;;4952366;28;20042;-82
2022/11/06 02:24:03;;;;;;;16.77;10.20;;;;;;;;;;4964996;28;20054;-79
2022/11/06 02:26:29;;;;;;;16.40;9.23;;;;;;;;;;4971783;28;20057;-81
2022/11/06 02:29:02;;;;;;;17.05;8.88;;;;;;;;;;4969928;28;20626;-81
2022/11/06 02:31:29;;;;;;;18.30;10.15;;;;;;;;;;4953704;28;20043;-79
2022/11/06 02:33:58;;;;;;;18.42;10.85;;;;;;;;;;4961408;28;20027;-81
2022/11/06 02:36:30;;;;;;;18.15;9.68;;;;;;;;;;4953991;28;20034;-81
2022/11/06 02:38:58;;;;;;;22.43;11.70;;;;;;;;;;4966965;28;20027;-79
2022/11/06 02:41:26;;;;;;;20.60;11.23;;;;;;;;;;4964491;28;20081;-80
2022/11/06 02:43:54;;;;;;;18.52;9.85;;;;;;;;;;4961896;28;20031;-82
2022/11/06 02:46:40;;;;;;;22.73;10.25;;;;;;;;;;4969353;28;20034;-80
2022/11/06 02:49:33;;;;;;;18.17;9.88;;;;;;;;;;4970264;28;20047;-80
2022/11/06 02:52:01;;;;;;;14.10;9.70;;;;;;;;;;4931636;29;20035;-80
2022/11/06 02:54:30;;;;;;;17.15;10.30;;;;;;;;;;4966468;28;20038;-81
2022/11/06 02:56:58;;;;;;;14.60;11.10;;;;;;;;;;4973208;28;20034;-83
2022/11/06 02:59:34;;;;;;;19.02;10.38;;;;;;;;;;4970198;28;20383;-81
2022/11/06 03:02:01;;;;;;;13.02;9.77;;;;;;;;;;4969126;28;20051;-81
2022/11/06 03:04:33;;;;;;;17.67;10.07;;;;;;;;;;4980344;28;20026;-80
2022/11/06 03:07:03;;;;;;;19.53;10.17;;;;;;;;;;4972054;28;20026;-83
2022/11/06 03:09:31;;;;;;;16.40;9.00;;;;;;;;;;4968455;28;20031;-84
2022/11/06 03:12:00;;;;;;;18.85;10.18;;;;;;;;;;4971911;28;20034;-82
2022/11/06 03:14:36;;;;;;;16.38;10.60;;;;;;;;;;4961228;28;20035;-84
2022/11/06 03:17:20;;;;;;;14.88;10.35;;;;;;;;;;4972271;28;20030;-81
2022/11/06 03:19:46;;;;;;;16.70;10.13;;;;;;;;;;4970000;28;20026;-79
2022/11/06 03:22:15;;;;;;;17.73;10.57;;;;;;;;;;4963572;28;20023;-79
2022/11/06 03:24:47;;;;;;;17.42;10.15;;;;;;;;;;4972481;28;20026;-80
2022/11/06 03:27:21;;;;;;;21.10;9.38;;;;;;;;;;4970539;28;20039;-80
2022/11/06 03:29:57;;;;;;;21.52;9.68;;;;;;;;;;4972619;28;20031;-79
2022/11/06 03:32:26;;;;;;;21.88;10.77;;;;;;;;;;4957157;28;20035;-80
2022/11/06 03:35:06;;;;;;;20.02;9.70;;;;;;;;;;4964499;28;20027;-81
2022/11/06 03:37:38;;;;;;;20.55;9.70;;;;;;;;;;4970765;28;20034;-80
2022/11/06 03:40:07;;;;;;;17.20;9.23;;;;;;;;;;4959724;28;20370;-80
2022/11/06 03:42:33;;;;;;;14.80;9.05;;;;;;;;;;4963535;28;20039;-80
2022/11/06 03:45:02;;;;;;;19.75;8.90;;;;;;;;;;4956036;28;20038;-80
2022/11/06 03:47:28;;;;;;;18.05;10.40;;;;;;;;;;4972317;28;20853;-80
2022/11/06 03:50:00;;;;;;;17.70;9.23;;;;;;;;;;4972934;28;20050;-81
2022/11/06 03:52:34;;;;;;;20.58;9.50;;;;;;;;;;4970931;28;20019;-78
2022/11/06 03:55:13;;;;;;;15.45;9.18;;;;;;;;;;4963293;28;20038;-80
2022/11/06 03:57:39;;;;;;;18.67;9.95;;;;;;;;;;4964700;28;20034;-81
2022/11/06 04:00:07;;;;;;;16.13;9.07;;;;;;;;;;4974953;28;20027;-79
2022/11/06 04:02:35;;;;;;;18.05;9.05;;;;;;;;;;4954284;28;20081;-78
2022/11/06 04:05:22;;;;;;;14.75;8.82;;;;;;;;;;4956774;28;20129;-80
2022/11/06 04:13:56;;;;;;;16.23;8.73;;;;;;;;;;4931973;29;20579;-80
2022/11/06 04:16:26;;;;;;;19.13;9.00;;;;;;;;;;4966830;28;20043;-78
2022/11/06 04:18:52;;;;;;;14.00;7.97;;;;;;;;;;4968556;28;20158;-79
2022/11/06 04:21:24;;;;;;;20.45;8.65;;;;;;;;;;4963480;28;20050;-78
2022/11/06 04:26:34;;;;;;;12.82;8.02;;;;;;;;;;4958529;28;20034;-79
2022/11/06 04:26:52;;;;;;;15.88;7.88;;;;;;;;;;4967796;28;20446;-77
2022/11/06 04:29:26;;;;;;;12.82;8.43;;;;;;;;;;4966947;28;20058;-79
2022/11/06 04:31:56;;;;;;;13.65;8.35;;;;;;;;;;4971310;28;20034;-80
2022/11/06 04:34:32;;;;;;;22.83;8.52;;;;;;;;;;4974435;28;20033;-78
2022/11/06 04:37:06;;;;;;;17.55;7.95;;;;;;;;;;4964153;28;20050;-77
2022/11/06 04:39:44;;;;;;;20.13;8.77;;;;;;;;;;4965689;28;20022;-78
2022/11/06 04:42:13;;;;;;;16.13;8.02;;;;;;;;;;4974950;28;20042;-78
2022/11/06 04:44:42;;;;;;;17.30;8.85;;;;;;;;;;4967228;28;20039;-80
2022/11/06 04:47:14;;;;;;;12.52;8.35;;;;;;;;;;4972440;28;20070;-78
2022/11/06 04:49:42;;;;;;;17.75;8.48;;;;;;;;;;4972143;28;20074;-79
2022/11/06 04:52:11;;;;;;;15.00;7.95;;;;;;;;;;4968973;28;20050;-78
2022/11/06 04:54:37;;;;;;;18.52;8.18;;;;;;;;;;4973381;28;20046;-79
2022/11/06 04:57:04;;;;;;;13.93;7.97;;;;;;;;;;4976408;28;20487;-79
2022/11/06 04:59:32;;;;;;;16.92;7.97;;;;;;;;;;4970819;28;20419;-79
2022/11/06 05:01:58;;;;;;;17.63;7.30;;;;;;;;;;4969195;28;20089;-79
2022/11/06 05:04:24;;;;;;;14.65;7.32;;;;;;;;;;4957141;28;20037;-78
2022/11/06 05:06:50;;;;;;;15.95;7.78;;;;;;;;;;4968642;28;20042;-79
2022/11/06 05:09:16;;;;;;;14.80;7.10;;;;;;;;;;4972591;28;20031;-81
2022/11/06 05:11:43;;;;;;;16.77;7.57;;;;;;;;;;4971448;28;20118;-80
2022/11/06 05:14:09;;;;;;;15.32;7.55;;;;;;;;;;4963749;28;20036;-77
2022/11/06 05:16:35;;;;;;;18.63;7.68;;;;;;;;;;4969370;28;20031;-78
2022/11/06 05:19:01;;;;;;;15.10;8.05;;;;;;;;;;4977776;28;20066;-79
2022/11/06 05:24:12;;;;;;;23.10;8.15;;;;;;;;;;4955985;28;20122;-79
2022/11/06 05:26:38;;;;;;;20.30;7.38;;;;;;;;;;4969060;28;20110;-79
2022/11/06 05:29:04;;;;;;;11.48;7.43;;;;;;;;;;4972140;28;20110;-79
2022/11/06 05:31:30;;;;;;;15.70;8.93;;;;;;;;;;4961593;28;20043;-79
2022/11/06 05:33:56;;;;;;;18.17;7.43;;;;;;;;;;4958325;28;20023;-79
2022/11/06 05:36:22;;;;;;;17.77;8.32;;;;;;;;;;4954873;28;20043;-80
2022/11/06 05:38:48;;;;;;;17.45;7.05;;;;;;;;;;4979636;28;20035;-78
2022/11/06 05:41:14;;;;;;;15.10;7.90;;;;;;;;;;4962828;28;20034;-78
2022/11/06 05:43:40;;;;;;;17.92;8.15;;;;;;;;;;4954439;28;20039;-79
2022/11/06 05:46:06;;;;;;;11.00;7.43;;;;;;;;;;4966028;28;20031;-79
2022/11/06 05:48:32;;;;;;;14.52;7.57;;;;;;;;;;4971309;28;20050;-79
2022/11/06 05:51:02;;;;;;;15.02;7.38;;;;;;;;;;4967659;28;20043;-78
2022/11/06 05:53:33;;;;;;;13.02;8.02;;;;;;;;;;4970885;28;20115;-79
2022/11/06 05:55:59;;;;;;;11.18;6.97;;;;;;;;;;4961956;28;20395;-79
2022/11/06 05:58:25;;;;;;;13.18;7.80;;;;;;;;;;4967695;28;23885;-80
2022/11/06 06:00:52;;;;;;;13.50;8.15;;;;;;;;;;4966806;28;20358;-81
2022/11/06 06:03:20;;;;;;;20.95;8.13;;;;;;;;;;4968190;28;20483;-80
2022/11/06 06:05:46;;;;;;;14.27;8.02;;;;;;;;;;4962466;28;20476;-80
2022/11/06 06:08:12;;;;;;;16.30;7.60;;;;;;;;;;4963929;28;20115;-79
2022/11/06 06:10:42;;;;;;;14.05;8.02;;;;;;;;;;4966998;28;20026;-81
2022/11/06 06:13:08;;;;;;;20.63;7.38;;;;;;;;;;4979616;28;20062;-81
2022/11/06 06:15:34;;;;;;;16.42;7.80;;;;;;;;;;4952374;28;20042;-80
2022/11/06 06:18:00;;;;;;;17.20;8.40;;;;;;;;;;4974982;28;20034;-78
2022/11/06 06:20:26;;;;;;;14.63;7.93;;;;;;;;;;4973176;28;20039;-82
2022/11/06 06:22:53;;;;;;;18.92;7.80;;;;;;;;;;4967587;28;20046;-80
2022/11/06 06:25:19;;;;;;;17.77;8.00;;;;;;;;;;4971463;28;20087;-77
2022/11/06 06:27:45;;;;;;;14.57;8.38;;;;;;;;;;4968440;28;20112;-78
2022/11/06 06:30:11;;;;;;;17.73;8.75;;;;;;;;;;4959817;28;20550;-77
2022/11/06 06:32:37;;;;;;;19.02;8.75;;;;;;;;;;4948788;28;20039;-77
2022/11/06 06:35:03;;;;;;;15.73;8.55;;;;;;;;;;4948159;28;20027;-81
2022/11/06 06:37:29;;;;;;;18.30;7.47;;;;;;;;;;4964610;28;20067;-79
2022/11/06 06:39:55;;;;;;;15.13;7.15;;;;;;;;;;4972446;28;20034;-80
2022/11/06 06:42:21;;;;;;;19.65;9.27;;;;;;;;;;4952948;28;20065;-78
2022/11/06 06:44:47;;;;;;;19.65;8.40;;;;;;;;;;4970031;28;20499;-77
2022/11/06 06:47:17;;;;;;;27.20;13.48;;;;;;;;;;4967338;28;20083;-73
2022/11/06 06:49:43;;;;;;;17.25;7.22;;;;;;;;;;4971400;28;20029;-78
2022/11/06 06:52:10;;;;;;;14.60;7.00;;;;;;;;;;4968789;28;20054;-79
2022/11/06 06:54:36;;;;;;;19.13;6.85;;;;;;;;;;4972449;28;20046;-81
2022/11/06 06:57:03;;;;;;;11.63;5.63;;;;;;;;;;4968272;28;20035;-78
2022/11/06 06:59:29;;;;;;;15.55;6.32;;;;;;;;;;4968924;28;20047;-81
2022/11/06 07:01:55;;;;;;;14.15;6.18;;;;;;;;;;4976068;28;20069;-85
2022/11/06 07:04:21;;;;;;;16.13;7.55;;;;;;;;;;4979240;28;20050;-82
2022/11/06 07:06:47;;;;;;;17.10;6.10;;;;;;;;;;4960302;28;20065;-83
2022/11/06 07:09:13;;;;;;;12.65;6.32;;;;;;;;;;4973020;28;20034;-84
2022/11/06 07:11:39;;;;;;;14.73;6.55;;;;;;;;;;4941035;28;20031;-84
2022/11/06 07:14:05;;;;;;;15.32;6.20;;;;;;;;;;4969506;28;20074;-82
2022/11/06 07:16:31;;;;;;;16.38;6.03;;;;;;;;;;4966551;28;20039;-81
2022/11/06 07:18:58;;;;;;;10.07;5.22;;;;;;;;;;4977166;28;20038;-82
2022/11/06 07:21:24;;;;;;;16.55;5.53;;;;;;;;;;4971030;28;20028;-84
2022/11/06 07:23:50;;;;;;;11.90;5.38;;;;;;;;;;4959303;28;20031;-82
2022/11/06 07:26:16;;;;;;;20.05;7.13;;;;;;;;;;4965095;28;20031;-80
2022/11/06 07:28:42;;;;;;;13.68;6.25;;;;;;;;;;4986938;28;20027;-81
2022/11/06 07:31:11;;;;;;;14.63;6.88;;;;;;;;;;4950958;28;20039;-82
2022/11/06 07:33:38;;;;;;;18.70;6.80;;;;;;;;;;4969766;28;20034;-82
2022/11/06 07:36:04;;;;;;;15.18;6.15;;;;;;;;;;4977135;28;20126;-81
2022/11/06 07:38:30;;;;;;;16.83;6.63;;;;;;;;;;4972372;28;20110;-82
2022/11/06 07:41:00;;;;;;;18.80;6.05;;;;;;;;;;4971495;28;20029;-83
2022/11/06 07:43:26;;;;;;;11.93;4.85;;;;;;;;;;4967666;28;20039;-85
2022/11/06 07:45:52;;;;;;;13.18;6.25;;;;;;;;;;4965419;28;20114;-84
2022/11/06 07:48:18;;;;;;;18.75;5.43;;;;;;;;;;4954281;28;20071;-83
2022/11/06 07:50:44;;;;;;;13.70;5.72;;;;;;;;;;4969974;28;20129;-81
2022/11/06 07:53:10;;;;;;;17.20;5.03;;;;;;;;;;4970772;28;20415;-83
2022/11/06 07:55:36;;;;;;;16.50;6.05;;;;;;;;;;4968671;28;20031;-84
2022/11/06 07:58:02;;;;;;;14.50;5.30;;;;;;;;;;4955970;28;20042;-82
2022/11/06 08:00:28;;;;;;;9.30;4.72;;;;;;;;;;4953464;28;20530;-82
2022/11/06 08:02:55;;;;;;;16.55;5.18;;;;;;;;;;4955051;28;20050;-82
2022/11/06 08:05:21;;;;;;;12.32;4.90;;;;;;;;;;4960278;28;20027;-83
2022/11/06 08:07:47;;;;;;;14.25;5.00;;;;;;;;;;4972038;28;20034;-83
2022/11/06 08:10:13;;;;;;;13.75;5.53;;;;;;;;;;4972676;28;20756;-82
2022/11/06 08:12:39;;;;;;;16.23;4.45;;;;;;;;;;4961034;28;20538;-82
2022/11/06 08:15:05;;;;;;;12.75;4.03;;;;;;;;;;4967574;28;20031;-82
2022/11/06 08:17:31;;;;;;;15.30;5.00;;;;;;;;;;4957050;28;20122;-82
2022/11/06 08:19:57;;;;;;;8.57;3.33;;;;;;;;;;4956927;28;20133;-84
2022/11/06 08:22:23;;;;;;;10.02;4.38;;;;;;;;;;4975454;28;20372;-82
2022/11/06 08:24:49;;;;;;;14.48;3.95;;;;;;;;;;4962538;28;20030;-81
2022/11/06 08:27:17;;;;;;;14.52;4.93;;;;;;;;;;4981049;28;20033;-82
2022/11/06 08:29:43;;;;;;;13.10;4.10;;;;;;;;;;4963264;28;20102;-80
2022/11/06 08:32:09;;;;;;;18.90;5.38;;;;;;;;;;4971493;28;20411;-80
2022/11/06 08:34:35;;;;;;;12.90;4.55;;;;;;;;;;4973736;28;20034;-80
2022/11/06 08:37:01;;;;;;;12.40;3.60;;;;;;;;;;4963098;28;20511;-82
2022/11/06 08:39:27;;;;;;;11.68;4.78;;;;;;;;;;4964829;28;20046;-83
2022/11/06 08:41:53;;;;;;;15.18;4.32;;;;;;;;;;4977761;28;20066;-81
2022/11/06 08:44:19;;;;;;;14.52;3.85;;;;;;;;;;4984692;28;20106;-80
2022/11/06 08:46:48;;;;;;;10.13;4.25;;;;;;;;;;4962892;28;20034;-82
2022/11/06 08:49:14;;;;;;;21.40;9.80;;;;;;;;;;4974165;28;20031;-84
2022/11/06 08:51:40;;;;;;;44.83;22.40;;;;;;;;;;4970051;28;20058;-84
2022/11/06 08:54:06;;;;;;;9.27;3.10;;;;;;;;;;4975327;28;20027;-85
2022/11/06 08:56:32;;;;;;;13.95;4.93;;;;;;;;;;4967358;28;20034;-85
2022/11/06 08:58:58;;;;;;;12.68;3.88;;;;;;;;;;4970932;28;20066;-85
2022/11/06 09:01:24;;;;;;;8.27;3.20;;;;;;;;;;4969297;28;20094;-85
2022/11/06 09:03:50;;;;;;;8.35;3.75;;;;;;;;;;4972663;28;20034;-85
2022/11/06 09:06:16;;;;;;;9.63;3.65;;;;;;;;;;4974121;28;20065;-86
2022/11/06 09:08:42;;;;;;;10.70;3.53;;;;;;;;;;4969207;28;20027;-86
2022/11/06 09:11:09;;;;;;;8.02;3.00;;;;;;;;;;4959305;28;20042;-84
2022/11/06 09:13:35;;;;;;;13.82;3.45;;;;;;;;;;4972545;28;20027;-86
2022/11/06 09:16:01;;;;;;;12.48;3.40;;;;;;;;;;4970446;28;20030;-82
2022/11/06 09:18:28;;;;;;;11.05;3.03;;;;;;;;;;4971874;28;20031;-86
2022/11/06 09:20:57;;;;;;;15.25;4.72;;;;;;;;;;4974096;28;20041;-83
2022/11/06 09:23:23;;;;;;;11.80;3.20;;;;;;;;;;4970428;28;20031;-81
2022/11/06 09:25:50;;;;;;;10.90;3.33;;;;;;;;;;4966744;28;20118;-79
2022/11/06 09:28:16;;;;;;;11.02;3.58;;;;;;;;;;4973859;28;20026;-86
2022/11/06 09:30:42;;;;;;;13.18;3.47;;;;;;;;;;4971989;28;20039;-83
2022/11/06 09:33:08;;;;;;;9.82;2.90;;;;;;;;;;4968466;28;20475;-81
2022/11/06 09:35:35;;;;;;;19.27;3.88;;;;;;;;;;4973442;28;20058;-81
2022/11/06 09:38:06;;;;;;;6.63;3.08;;;;;;;;;;4974233;28;20062;-79
2022/11/06 09:40:36;;;;;;;13.00;3.65;;;;;;;;;;4955570;28;20039;-82
2022/11/06 09:43:15;;;;;;;14.45;4.22;;;;;;;;;;4965000;28;20054;-83
2022/11/06 09:45:41;;;;;;;8.15;3.47;;;;;;;;;;4977830;28;20021;-82
2022/11/06 09:48:07;;;;;;;12.27;4.10;;;;;;;;;;4967044;28;20054;-82
2022/11/06 09:50:35;;;;;;;10.00;3.63;;;;;;;;;;4967239;28;20073;-81
2022/11/06 09:53:06;;;;;;;8.55;3.33;;;;;;;;;;4971156;28;20066;-80
2022/11/06 09:55:38;;;;;;;11.35;3.25;;;;;;;;;;4966606;28;20111;-83
2022/11/06 09:58:08;;;;;;;9.20;4.23;;;;;;;;;;4975084;28;20063;-85
2022/11/06 10:00:34;;;;;;;10.98;3.45;;;;;;;;;;4967992;28;20297;-81
2022/11/06 10:03:03;;;;;;;16.58;3.35;;;;;;;;;;4970786;28;20038;-81
2022/11/06 10:05:33;;;;;;;8.50;2.90;;;;;;;;;;4963636;28;20034;-88
2022/11/06 10:08:01;;;;;;;11.05;3.03;;;;;;;;;;4962791;28;20173;-86
2022/11/06 10:10:34;;;;;;;5.40;2.85;;;;;;;;;;4969514;28;20379;-86
2022/11/06 10:13:03;;;;;;;8.48;3.20;;;;;;;;;;4964246;28;20030;-85
2022/11/06 10:15:32;;;;;;;12.40;2.60;;;;;;;;;;4986618;28;20023;-86
2022/11/06 10:18:17;;;;;;;10.93;3.75;;;;;;;;;;4976481;28;20637;-85
2022/11/06 10:20:53;;;;;;;12.27;2.72;;;;;;;;;;4965222;28;20042;-84
2022/11/06 10:23:22;;;;;;;9.05;2.60;;;;;;;;;;4975019;28;20150;-86
2022/11/06 10:25:54;;;;;;;7.65;2.50;;;;;;;;;;4972872;28;20034;-83
2022/11/06 10:28:31;;;;;;;9.10;3.08;;;;;;;;;;4977826;28;20023;-84
2022/11/06 10:31:01;;;;;;;9.48;2.25;;;;;;;;;;4960822;28;20029;-81
2022/11/06 10:33:46;;;;;;;11.55;2.50;;;;;;;;;;4973729;28;20035;-83
2022/11/06 10:36:18;;;;;;;7.10;2.25;;;;;;;;;;4956790;28;20031;-82
2022/11/06 10:38:46;;;;;;;7.90;2.25;;;;;;;;;;4985704;28;20007;-84
2022/11/06 10:41:24;;;;;;;6.22;2.13;;;;;;;;;;4973477;28;20035;-82
2022/11/06 10:43:51;;;;;;;5.32;1.75;;;;;;;;;;4982044;28;20459;-81
2022/11/06 10:46:24;;;;;;;7.22;2.45;;;;;;;;;;4964917;28;20050;-82
2022/11/06 10:49:01;;;;;;;9.00;2.00;;;;;;;;;;4971164;28;20030;-80
2022/11/06 10:51:37;;;;;;;7.55;1.83;;;;;;;;;;4971541;28;20054;-82
2022/11/06 10:54:15;;;;;;;9.00;2.35;;;;;;;;;;4972856;28;20022;-82
2022/11/06 10:56:46;;;;;;;10.32;3.45;;;;;;;;;;4980869;28;20029;-80
2022/11/06 10:59:12;;;;;;;9.35;2.85;;;;;;;;;;4960857;28;20093;-81
2022/11/06 11:01:39;;;;;;;8.77;2.35;;;;;;;;;;4968858;28;20047;-77
2022/11/06 11:04:05;;;;;;;11.40;2.67;;;;;;;;;;4968665;28;20035;-78
2022/11/06 11:06:31;;;;;;;11.43;3.13;;;;;;;;;;4970609;28;20426;-79
2022/11/06 11:08:57;;;;;;;7.60;2.38;;;;;;;;;;4977244;28;20026;-79
2022/11/06 11:11:25;;;;;;;11.48;2.30;;;;;;;;;;4970818;28;20082;-79
2022/11/06 11:13:56;;;;;;;6.38;1.80;;;;;;;;;;4970865;28;20038;-77
2022/11/06 11:16:22;;;;;;;9.57;2.40;;;;;;;;;;4968364;28;20384;-78
2022/11/06 11:18:49;;;;;;;9.15;2.28;;;;;;;;;;4987542;28;20093;-78
2022/11/06 11:21:18;;;;;;;8.57;2.80;;;;;;;;;;4959587;28;20126;-78
2022/11/06 11:24:07;;;;;;;7.82;2.75;;;;;;;;;;4962808;28;20501;-78
2022/11/06 11:26:36;;;;;;;12.68;2.78;;;;;;;;;;4943615;28;20502;-78
2022/11/06 11:29:11;;;;;;;6.05;2.15;;;;;;;;;;4953463;28;20032;-78
2022/11/06 11:31:37;;;;;;;7.03;2.63;;;;;;;;;;4965827;28;20039;-78
2022/11/06 11:34:06;;;;;;;15.15;3.42;;;;;;;;;;4970897;28;20383;-78
2022/11/06 11:36:51;;;;;;;7.28;1.98;;;;;;;;;;4954382;28;20045;-77
2022/11/06 11:39:18;;;;;;;12.23;2.38;;;;;;;;;;4968938;28;20387;-77
2022/11/06 11:41:44;;;;;;;10.85;2.00;;;;;;;;;;4956181;28;20054;-79
2022/11/06 11:44:13;;;;;;;7.22;2.08;;;;;;;;;;4969501;28;20046;-78
2022/11/06 11:46:59;;;;;;;9.77;2.85;;;;;;;;;;4970716;28;20027;-78
2022/11/06 11:49:29;;;;;;;10.45;2.75;;;;;;;;;;4953798;28;20069;-78
2022/11/06 11:51:58;;;;;;;6.70;2.13;;;;;;;;;;4983706;28;20100;-77
2022/11/06 11:54:25;;;;;;;9.00;2.13;;;;;;;;;;4978916;28;20125;-77
2022/11/06 11:56:52;;;;;;;8.38;1.98;;;;;;;;;;4970696;28;20499;-78
2022/11/06 11:59:19;;;;;;;5.97;1.80;;;;;;;;;;4975352;28;20059;-78
2022/11/06 12:01:46;;;;;;;7.95;1.60;;;;;;;;;;4961376;28;20047;-78
2022/11/06 12:04:15;;;;;;;7.82;1.67;;;;;;;;;;4963873;28;20030;-78
2022/11/06 12:06:55;;;;;;;8.88;2.03;;;;;;;;;;4972911;28;20080;-78
2022/11/06 12:09:22;;;;;;;6.13;1.60;;;;;;;;;;4973175;28;20428;-79
2022/11/06 12:11:48;;;;;;;4.78;1.80;;;;;;;;;;4962549;28;20031;-78
2022/11/06 12:14:17;;;;;;;12.63;3.45;;;;;;;;;;4975492;28;20380;-78
2022/11/06 12:16:45;;;;;;;6.18;1.77;;;;;;;;;;4972496;28;20365;-78
2022/11/06 12:19:12;;;;;;;8.02;2.00;;;;;;;;;;4971188;28;20041;-78
2022/11/06 12:21:38;;;;;;;6.43;1.65;;;;;;;;;;4971220;28;20479;-78
2022/11/06 12:24:10;;;;;;;8.95;2.00;;;;;;;;;;4971163;28;20046;-78
2022/11/06 12:26:54;;;;;;;5.53;2.10;;;;;;;;;;4974477;28;20035;-78
2022/11/06 12:29:23;;;;;;;7.32;2.22;;;;;;;;;;4970943;28;20070;-80
2022/11/06 12:31:49;;;;;;;8.55;1.90;;;;;;;;;;4961124;28;20063;-78
2022/11/06 12:34:31;;;;;;;6.57;2.10;;;;;;;;;;4954218;28;20062;-78
2022/11/06 12:37:15;;;;;;;8.15;2.95;;;;;;;;;;4972299;28;20031;-78
2022/11/06 12:39:42;;;;;;;7.30;3.17;;;;;;;;;;4981307;28;20061;-78
2022/11/06 12:42:11;;;;;;;6.00;1.50;;;;;;;;;;4980117;28;20116;-78
2022/11/06 12:44:38;;;;;;;5.47;2.60;;;;;;;;;;4987531;28;20550;-78
2022/11/06 12:47:04;;;;;;;7.78;2.20;;;;;;;;;;4958663;28;20046;-78
2022/11/06 12:49:33;;;;;;;8.10;2.72;;;;;;;;;;4960427;28;20037;-78
2022/11/06 12:52:08;;;;;;;4.57;1.65;;;;;;;;;;4962188;28;20047;-78
2022/11/06 12:54:52;;;;;;;5.03;2.55;;;;;;;;;;4955208;29;20472;-78
2022/11/06 12:57:29;;;;;;;8.23;2.13;;;;;;;;;;4963618;28;20435;-79
2022/11/06 12:59:55;;;;;;;8.00;2.65;;;;;;;;;;4987116;28;20117;-78
2022/11/06 13:02:30;;;;;;;10.40;2.35;;;;;;;;;;4957867;28;20041;-79
2022/11/06 13:05:03;;;;;;;8.35;2.60;;;;;;;;;;4966943;28;20114;-80
2022/11/06 13:07:29;;;;;;;;;;;;;;;;;;4956403;28;20031;-81
2022/11/06 13:10:01;;;;;;;11.93;2.45;;;;;;;;;;4966118;28;19934;-80
2022/11/06 13:12:33;;;;;;;10.32;2.72;;;;;;;;;;4954142;28;20424;-80
2022/11/06 13:15:02;;;;;;;7.95;2.60;;;;;;;;;;4956507;28;20077;-79
2022/11/06 13:17:34;;;;;;;5.65;1.90;;;;;;;;;;4990029;28;20040;-79
2022/11/06 13:20:19;;;;;;;15.02;2.50;;;;;;;;;;4983670;28;20035;-79
2022/11/06 13:22:51;;;;;;;9.48;3.03;;;;;;;;;;4964573;28;20503;-79
2022/11/06 13:25:17;;;;;;;11.48;2.50;;;;;;;;;;4970405;28;20053;-79
2022/11/06 13:27:53;;;;;;;10.55;2.50;;;;;;;;;;4973500;28;20367;-79
2022/11/06 13:30:21;;;;;;;8.00;2.13;;;;;;;;;;4967417;28;20035;-79
2022/11/06 13:33:07;;;;;;;7.43;2.30;;;;;;;;;;4976723;28;20029;-79
2022/11/06 13:35:34;;;;;;;6.55;2.00;;;;;;;;;;4988488;28;20030;-79
2022/11/06 13:38:02;;;;;;;6.05;2.25;;;;;;;;;;4968960;28;20105;-79
2022/11/06 13:40:41;;;;;;;8.07;2.67;;;;;;;;;;4974649;28;20050;-79
2022/11/06 13:43:07;;;;;;;7.13;2.35;;;;;;;;;;4971352;28;20030;-78
2022/11/06 13:45:42;;;;;;;8.93;1.85;;;;;;;;;;4958319;28;20023;-79
2022/11/06 13:48:14;;;;;;;8.07;1.92;;;;;;;;;;4962599;28;20038;-78
2022/11/06 13:50:46;;;;;;;6.65;2.08;;;;;;;;;;4980527;28;20502;-79
2022/11/06 13:53:21;;;;;;;7.78;2.40;;;;;;;;;;4972795;28;20059;-78
2022/11/06 13:55:50;;;;;;;11.02;1.85;;;;;;;;;;4977867;28;20022;-79
2022/11/06 13:58:29;;;;;;;7.93;1.70;;;;;;;;;;4970432;28;20042;-78
2022/11/06 14:01:14;;;;;;;8.05;2.33;;;;;;;;;;4956397;28;20403;-78
2022/11/06 14:03:52;;;;;;;9.18;2.00;;;;;;;;;;4962735;28;20039;-78
2022/11/06 14:06:22;;;;;;;8.43;2.05;;;;;;;;;;4970043;28;20023;-78
2022/11/06 14:08:56;;;;;;;8.38;2.60;;;;;;;;;;4959225;28;20058;-79
2022/11/06 14:11:27;;;;;;;7.78;1.90;;;;;;;;;;4963359;28;20046;-79
2022/11/06 14:14:01;;;;;;;13.23;2.40;;;;;;;;;;4968167;28;20527;-80
2022/11/06 14:16:36;;;;;;;12.63;2.67;;;;;;;;;;4955882;28;20435;-80
2022/11/06 14:19:02;;;;;;;8.32;2.28;;;;;;;;;;4967183;28;20039;-80
2022/11/06 14:21:28;;;;;;;5.95;2.03;;;;;;;;;;4966286;28;20345;-80
2022/11/06 14:23:54;;;;;;;13.80;4.30;;;;;;;;;;4965603;28;20023;-80
2022/11/06 14:26:40;;;;;;;15.20;4.82;;;;;;;;;;4969954;28;20507;-79
2022/11/06 14:29:25;;;;;;;7.65;2.30;;;;;;;;;;4976146;28;20023;-79
2022/11/06 14:32:00;;;;;;;12.02;2.50;;;;;;;;;;4968400;28;20055;-79
2022/11/06 14:34:30;;;;;;;6.88;2.83;;;;;;;;;;4957028;29;20101;-79
2022/11/06 14:36:56;;;;;;;9.48;2.90;;;;;;;;;;4965177;28;20030;-79
2022/11/06 14:39:41;;;;;;;12.75;3.00;;;;;;;;;;4968788;28;20042;-79
2022/11/06 14:42:07;;;;;;;8.57;3.45;;;;;;;;;;4971006;28;20031;-79
2022/11/06 14:44:38;;;;;;;8.32;2.67;;;;;;;;;;4967687;28;20515;-79
2022/11/06 14:47:07;;;;;;;15.45;3.63;;;;;;;;;;4972670;28;20073;-80
2022/11/06 14:49:39;;;;;;;8.65;2.50;;;;;;;;;;4973306;28;20022;-79
2022/11/06 14:52:05;;;;;;;;;;;;;;;;;;4973081;28;20058;-79
2022/11/06 14:54:33;;;;;;;11.90;1.83;;;;;;;;;;4956829;28;19911;-80
2022/11/06 14:56:59;;;;;;;7.95;2.03;;;;;;;;;;4975890;28;20098;-80